sensor_id;sensor_type;location;lat;lon;timestamp;pressure;altitude;pressure_sealevel;temperature
25514;BMP180;48128;54.242;10.280;2022-10-13T00:00:09;101549.00;;;7.20
25514;BMP180;48128;54.242;10.280;2022-10-13T00:02:36;101543.00;;;7.30
25514;BMP180;48128;54.242;10.280;2022-10-13T00:05:03;101543.00;;;7.30
25514;BMP180;48128;54.242;10.280;2022-10-13T00:07:30;101540.00;;;7.30
25514;BMP180;48128;54.242;10.280;2022-10-13T00:09:57;101547.00;;;7.40
25514;BMP180;48128;54.242;10.280;2022-10-13T00:12:24;101549.00;;;7.50
25514;BMP180;48128;54.242;10.280;2022-10-13T00:14:51;101537.00;;;7.50
25514;BMP180;48128;54.242;10.280;2022-10-13T00:17:17;101543.00;;;7.50
25514;BMP180;48128;54.242;10.280;2022-10-13T00:19:50;101547.00;;;7.50
25514;BMP180;48128;54.242;10.280;2022-10-13T00:22:17;101543.00;;;7.50
25514;BMP180;48128;54.242;10.280;2022-10-13T00:24:49;101548.00;;;7.50
25514;BMP180;48128;54.242;10.280;2022-10-13T00:27:16;101537.00;;;7.50
25514;BMP180;48128;54.242;10.280;2022-10-13T00:29:43;101536.00;;;7.50
25514;BMP180;48128;54.242;10.280;2022-10-13T00:32:10;101524.00;;;7.50
25514;BMP180;48128;54.242;10.280;2022-10-13T00:34:38;101525.00;;;7.60
25514;BMP180;48128;54.242;10.280;2022-10-13T00:37:05;101529.00;;;7.60
25514;BMP180;48128;54.242;10.280;2022-10-13T00:39:32;101528.00;;;7.70
25514;BMP180;48128;54.242;10.280;2022-10-13T00:41:59;101536.00;;;7.70
25514;BMP180;48128;54.242;10.280;2022-10-13T00:44:57;101538.00;;;7.70
25514;BMP180;48128;54.242;10.280;2022-10-13T00:47:40;101539.00;;;7.70
25514;BMP180;48128;54.242;10.280;2022-10-13T00:50:11;101546.00;;;7.80
25514;BMP180;48128;54.242;10.280;2022-10-13T00:52:39;101550.00;;;7.80
25514;BMP180;48128;54.242;10.280;2022-10-13T00:55:07;101551.00;;;7.80
25514;BMP180;48128;54.242;10.280;2022-10-13T00:57:37;101545.00;;;7.80
25514;BMP180;48128;54.242;10.280;2022-10-13T01:00:05;101540.00;;;7.80
25514;BMP180;48128;54.242;10.280;2022-10-13T01:02:34;101545.00;;;7.80
25514;BMP180;48128;54.242;10.280;2022-10-13T01:05:02;101543.00;;;7.80
25514;BMP180;48128;54.242;10.280;2022-10-13T01:07:29;101553.00;;;7.80
25514;BMP180;48128;54.242;10.280;2022-10-13T01:09:57;101551.00;;;7.80
25514;BMP180;48128;54.242;10.280;2022-10-13T01:12:34;101555.00;;;7.80
25514;BMP180;48128;54.242;10.280;2022-10-13T01:18:39;101540.00;;;7.70
25514;BMP180;48128;54.242;10.280;2022-10-13T01:20:58;101530.00;;;7.70
25514;BMP180;48128;54.242;10.280;2022-10-13T01:32:31;101506.00;;;7.70
25514;BMP180;48128;54.242;10.280;2022-10-13T01:35:16;101508.00;;;7.70
25514;BMP180;48128;54.242;10.280;2022-10-13T01:43:31;101499.00;;;7.70
25514;BMP180;48128;54.242;10.280;2022-10-13T01:46:12;101488.00;;;7.70
25514;BMP180;48128;54.242;10.280;2022-10-13T01:48:41;101492.00;;;7.60
25514;BMP180;48128;54.242;10.280;2022-10-13T01:51:10;101479.00;;;7.60
25514;BMP180;48128;54.242;10.280;2022-10-13T01:53:38;101482.00;;;7.60
25514;BMP180;48128;54.242;10.280;2022-10-13T01:56:06;101475.00;;;7.60
25514;BMP180;48128;54.242;10.280;2022-10-13T01:58:33;101481.00;;;7.50
25514;BMP180;48128;54.242;10.280;2022-10-13T02:03:51;101483.00;;;7.50
25514;BMP180;48128;54.242;10.280;2022-10-13T02:06:33;101480.00;;;7.50
25514;BMP180;48128;54.242;10.280;2022-10-13T02:09:07;101476.00;;;7.40
25514;BMP180;48128;54.242;10.280;2022-10-13T02:11:36;101461.00;;;7.40
25514;BMP180;48128;54.242;10.280;2022-10-13T02:14:08;101474.00;;;7.30
25514;BMP180;48128;54.242;10.280;2022-10-13T02:16:40;101471.00;;;7.30
25514;BMP180;48128;54.242;10.280;2022-10-13T02:19:09;101469.00;;;7.20
25514;BMP180;48128;54.242;10.280;2022-10-13T02:21:36;101472.00;;;7.10
25514;BMP180;48128;54.242;10.280;2022-10-13T02:24:03;101464.00;;;7.10
25514;BMP180;48128;54.242;10.280;2022-10-13T02:26:31;101459.00;;;7.00
25514;BMP180;48128;54.242;10.280;2022-10-13T02:28:58;101470.00;;;6.90
25514;BMP180;48128;54.242;10.280;2022-10-13T02:31:25;101456.00;;;6.90
25514;BMP180;48128;54.242;10.280;2022-10-13T02:33:52;101458.00;;;6.80
25514;BMP180;48128;54.242;10.280;2022-10-13T02:36:19;101450.00;;;6.70
25514;BMP180;48128;54.242;10.280;2022-10-13T02:38:46;101442.00;;;6.70
25514;BMP180;48128;54.242;10.280;2022-10-13T02:41:12;101449.00;;;6.70
25514;BMP180;48128;54.242;10.280;2022-10-13T02:43:39;101444.00;;;6.60
25514;BMP180;48128;54.242;10.280;2022-10-13T02:46:06;101437.00;;;6.50
25514;BMP180;48128;54.242;10.280;2022-10-13T02:48:33;101448.00;;;6.50
25514;BMP180;48128;54.242;10.280;2022-10-13T02:51:00;101439.00;;;6.40
25514;BMP180;48128;54.242;10.280;2022-10-13T02:53:27;101431.00;;;6.40
25514;BMP180;48128;54.242;10.280;2022-10-13T02:55:54;101442.00;;;6.30
25514;BMP180;48128;54.242;10.280;2022-10-13T02:58:20;101435.00;;;6.30
25514;BMP180;48128;54.242;10.280;2022-10-13T03:00:47;101428.00;;;6.20
25514;BMP180;48128;54.242;10.280;2022-10-13T03:03:14;101429.00;;;6.20
25514;BMP180;48128;54.242;10.280;2022-10-13T03:05:41;101421.00;;;6.10
25514;BMP180;48128;54.242;10.280;2022-10-13T03:08:08;101420.00;;;6.10
25514;BMP180;48128;54.242;10.280;2022-10-13T03:10:35;101436.00;;;6.10
25514;BMP180;48128;54.242;10.280;2022-10-13T03:13:02;101424.00;;;6.00
25514;BMP180;48128;54.242;10.280;2022-10-13T03:15:30;101418.00;;;6.00
25514;BMP180;48128;54.242;10.280;2022-10-13T03:17:57;101413.00;;;6.00
25514;BMP180;48128;54.242;10.280;2022-10-13T03:20:23;101395.00;;;6.00
25514;BMP180;48128;54.242;10.280;2022-10-13T03:22:50;101392.00;;;6.00
25514;BMP180;48128;54.242;10.280;2022-10-13T03:25:17;101382.00;;;6.00
25514;BMP180;48128;54.242;10.280;2022-10-13T03:27:44;101382.00;;;5.90
25514;BMP180;48128;54.242;10.280;2022-10-13T03:30:11;101384.00;;;5.90
25514;BMP180;48128;54.242;10.280;2022-10-13T03:32:38;101384.00;;;5.90
25514;BMP180;48128;54.242;10.280;2022-10-13T03:35:06;101381.00;;;6.00
25514;BMP180;48128;54.242;10.280;2022-10-13T03:37:33;101381.00;;;6.00
25514;BMP180;48128;54.242;10.280;2022-10-13T03:40:00;101381.00;;;6.00
25514;BMP180;48128;54.242;10.280;2022-10-13T03:42:27;101386.00;;;6.00
25514;BMP180;48128;54.242;10.280;2022-10-13T03:44:57;101380.00;;;6.10
25514;BMP180;48128;54.242;10.280;2022-10-13T03:47:24;101387.00;;;6.10
25514;BMP180;48128;54.242;10.280;2022-10-13T03:49:52;101386.00;;;6.20
25514;BMP180;48128;54.242;10.280;2022-10-13T03:52:21;101386.00;;;6.20
25514;BMP180;48128;54.242;10.280;2022-10-13T03:54:49;101395.00;;;6.30
25514;BMP180;48128;54.242;10.280;2022-10-13T03:57:16;101383.00;;;6.30
25514;BMP180;48128;54.242;10.280;2022-10-13T03:59:43;101387.00;;;6.40
25514;BMP180;48128;54.242;10.280;2022-10-13T04:02:09;101379.00;;;6.40
25514;BMP180;48128;54.242;10.280;2022-10-13T04:04:36;101368.00;;;6.40
25514;BMP180;48128;54.242;10.280;2022-10-13T04:07:04;101373.00;;;6.50
25514;BMP180;48128;54.242;10.280;2022-10-13T04:09:30;101364.00;;;6.50
25514;BMP180;48128;54.242;10.280;2022-10-13T04:11:58;101370.00;;;6.60
25514;BMP180;48128;54.242;10.280;2022-10-13T04:14:24;101362.00;;;6.50
25514;BMP180;48128;54.242;10.280;2022-10-13T04:16:52;101374.00;;;6.60
25514;BMP180;48128;54.242;10.280;2022-10-13T04:19:19;101381.00;;;6.60
25514;BMP180;48128;54.242;10.280;2022-10-13T04:21:45;101386.00;;;6.60
25514;BMP180;48128;54.242;10.280;2022-10-13T04:24:12;101379.00;;;6.70
25514;BMP180;48128;54.242;10.280;2022-10-13T04:26:39;101375.00;;;6.80
25514;BMP180;48128;54.242;10.280;2022-10-13T04:29:08;101366.00;;;6.90
25514;BMP180;48128;54.242;10.280;2022-10-13T04:31:35;101381.00;;;6.90
25514;BMP180;48128;54.242;10.280;2022-10-13T04:34:03;101367.00;;;6.90
25514;BMP180;48128;54.242;10.280;2022-10-13T04:36:30;101350.00;;;7.00
25514;BMP180;48128;54.242;10.280;2022-10-13T04:38:57;101362.00;;;7.00
25514;BMP180;48128;54.242;10.280;2022-10-13T04:41:24;101362.00;;;7.00
25514;BMP180;48128;54.242;10.280;2022-10-13T04:43:52;101367.00;;;7.00
25514;BMP180;48128;54.242;10.280;2022-10-13T04:46:24;101357.00;;;6.90
25514;BMP180;48128;54.242;10.280;2022-10-13T04:49:01;101349.00;;;6.90
25514;BMP180;48128;54.242;10.280;2022-10-13T04:52:17;101359.00;;;6.90
25514;BMP180;48128;54.242;10.280;2022-10-13T04:54:44;101364.00;;;6.80
25514;BMP180;48128;54.242;10.280;2022-10-13T04:57:10;101359.00;;;6.80
25514;BMP180;48128;54.242;10.280;2022-10-13T04:59:37;101366.00;;;6.90
25514;BMP180;48128;54.242;10.280;2022-10-13T05:02:04;101355.00;;;6.90
25514;BMP180;48128;54.242;10.280;2022-10-13T05:04:31;101358.00;;;6.80
25514;BMP180;48128;54.242;10.280;2022-10-13T05:06:58;101346.00;;;6.90
25514;BMP180;48128;54.242;10.280;2022-10-13T05:09:43;101336.00;;;6.90
25514;BMP180;48128;54.242;10.280;2022-10-13T05:12:10;101344.00;;;6.90
25514;BMP180;48128;54.242;10.280;2022-10-13T05:14:36;101337.00;;;6.90
25514;BMP180;48128;54.242;10.280;2022-10-13T05:17:03;101336.00;;;6.90
25514;BMP180;48128;54.242;10.280;2022-10-13T05:19:30;101345.00;;;6.90
25514;BMP180;48128;54.242;10.280;2022-10-13T05:21:57;101331.00;;;6.90
25514;BMP180;48128;54.242;10.280;2022-10-13T05:24:24;101337.00;;;6.90
25514;BMP180;48128;54.242;10.280;2022-10-13T05:27:07;101337.00;;;6.90
25514;BMP180;48128;54.242;10.280;2022-10-13T05:29:35;101329.00;;;6.80
25514;BMP180;48128;54.242;10.280;2022-10-13T05:32:02;101330.00;;;6.80
25514;BMP180;48128;54.242;10.280;2022-10-13T05:34:29;101323.00;;;6.80
25514;BMP180;48128;54.242;10.280;2022-10-13T05:36:56;101324.00;;;6.90
25514;BMP180;48128;54.242;10.280;2022-10-13T05:39:22;101334.00;;;6.80
25514;BMP180;48128;54.242;10.280;2022-10-13T05:41:49;101329.00;;;6.90
25514;BMP180;48128;54.242;10.280;2022-10-13T05:44:16;101341.00;;;6.80
25514;BMP180;48128;54.242;10.280;2022-10-13T05:46:43;101338.00;;;6.80
25514;BMP180;48128;54.242;10.280;2022-10-13T05:49:10;101343.00;;;6.90
25514;BMP180;48128;54.242;10.280;2022-10-13T05:51:42;101327.00;;;6.90
25514;BMP180;48128;54.242;10.280;2022-10-13T05:54:18;101313.00;;;6.90
25514;BMP180;48128;54.242;10.280;2022-10-13T05:56:50;101330.00;;;6.90
25514;BMP180;48128;54.242;10.280;2022-10-13T05:59:18;101321.00;;;7.00
25514;BMP180;48128;54.242;10.280;2022-10-13T06:01:52;101322.00;;;7.00
25514;BMP180;48128;54.242;10.280;2022-10-13T06:04:23;101329.00;;;7.00
25514;BMP180;48128;54.242;10.280;2022-10-13T06:06:51;101324.00;;;7.00
25514;BMP180;48128;54.242;10.280;2022-10-13T06:09:18;101319.00;;;7.00
25514;BMP180;48128;54.242;10.280;2022-10-13T06:11:45;101326.00;;;7.00
25514;BMP180;48128;54.242;10.280;2022-10-13T06:14:11;101316.00;;;7.10
25514;BMP180;48128;54.242;10.280;2022-10-13T06:16:38;101316.00;;;7.10
25514;BMP180;48128;54.242;10.280;2022-10-13T06:19:06;101316.00;;;7.10
25514;BMP180;48128;54.242;10.280;2022-10-13T06:21:34;101315.00;;;7.10
25514;BMP180;48128;54.242;10.280;2022-10-13T06:24:01;101300.00;;;7.20
25514;BMP180;48128;54.242;10.280;2022-10-13T06:26:28;101308.00;;;7.20
25514;BMP180;48128;54.242;10.280;2022-10-13T06:28:55;101308.00;;;7.20
25514;BMP180;48128;54.242;10.280;2022-10-13T06:31:25;101298.00;;;7.20
25514;BMP180;48128;54.242;10.280;2022-10-13T06:33:52;101299.00;;;7.30
25514;BMP180;48128;54.242;10.280;2022-10-13T06:36:19;101292.00;;;7.30
25514;BMP180;48128;54.242;10.280;2022-10-13T06:38:46;101307.00;;;7.30
25514;BMP180;48128;54.242;10.280;2022-10-13T06:41:12;101303.00;;;7.40
25514;BMP180;48128;54.242;10.280;2022-10-13T06:43:40;101299.00;;;7.40
25514;BMP180;48128;54.242;10.280;2022-10-13T06:46:07;101303.00;;;7.50
25514;BMP180;48128;54.242;10.280;2022-10-13T06:48:34;101298.00;;;7.50
25514;BMP180;48128;54.242;10.280;2022-10-13T06:51:06;101297.00;;;7.60
25514;BMP180;48128;54.242;10.280;2022-10-13T06:53:33;101296.00;;;7.70
25514;BMP180;48128;54.242;10.280;2022-10-13T06:56:01;101298.00;;;7.70
25514;BMP180;48128;54.242;10.280;2022-10-13T06:58:28;101281.00;;;7.80
25514;BMP180;48128;54.242;10.280;2022-10-13T07:00:56;101286.00;;;7.80
25514;BMP180;48128;54.242;10.280;2022-10-13T07:03:23;101282.00;;;7.90
25514;BMP180;48128;54.242;10.280;2022-10-13T07:05:50;101274.00;;;8.00
25514;BMP180;48128;54.242;10.280;2022-10-13T07:08:17;101292.00;;;8.00
25514;BMP180;48128;54.242;10.280;2022-10-13T07:10:44;101283.00;;;8.00
25514;BMP180;48128;54.242;10.280;2022-10-13T07:13:11;101289.00;;;8.10
25514;BMP180;48128;54.242;10.280;2022-10-13T07:15:39;101278.00;;;8.20
25514;BMP180;48128;54.242;10.280;2022-10-13T07:18:06;101292.00;;;8.20
25514;BMP180;48128;54.242;10.280;2022-10-13T07:20:33;101289.00;;;8.20
25514;BMP180;48128;54.242;10.280;2022-10-13T07:23:00;101298.00;;;8.30
25514;BMP180;48128;54.242;10.280;2022-10-13T07:25:27;101295.00;;;8.30
25514;BMP180;48128;54.242;10.280;2022-10-13T07:27:54;101296.00;;;8.40
25514;BMP180;48128;54.242;10.280;2022-10-13T07:30:21;101301.00;;;8.40
25514;BMP180;48128;54.242;10.280;2022-10-13T07:32:48;101309.00;;;8.50
25514;BMP180;48128;54.242;10.280;2022-10-13T07:35:15;101304.00;;;8.50
25514;BMP180;48128;54.242;10.280;2022-10-13T07:37:42;101305.00;;;8.60
25514;BMP180;48128;54.242;10.280;2022-10-13T07:40:09;101308.00;;;8.60
25514;BMP180;48128;54.242;10.280;2022-10-13T07:42:36;101311.00;;;8.70
25514;BMP180;48128;54.242;10.280;2022-10-13T07:45:03;101311.00;;;8.80
25514;BMP180;48128;54.242;10.280;2022-10-13T07:47:30;101312.00;;;8.90
25514;BMP180;48128;54.242;10.280;2022-10-13T07:49:57;101323.00;;;9.00
25514;BMP180;48128;54.242;10.280;2022-10-13T07:52:23;101318.00;;;9.10
25514;BMP180;48128;54.242;10.280;2022-10-13T07:54:50;101306.00;;;9.20
25514;BMP180;48128;54.242;10.280;2022-10-13T07:57:17;101315.00;;;9.30
25514;BMP180;48128;54.242;10.280;2022-10-13T07:59:44;101321.00;;;9.30
25514;BMP180;48128;54.242;10.280;2022-10-13T08:02:11;101324.00;;;9.40
25514;BMP180;48128;54.242;10.280;2022-10-13T08:04:37;101318.00;;;9.40
25514;BMP180;48128;54.242;10.280;2022-10-13T08:07:05;101318.00;;;9.50
25514;BMP180;48128;54.242;10.280;2022-10-13T08:09:32;101326.00;;;9.50
25514;BMP180;48128;54.242;10.280;2022-10-13T08:11:59;101317.00;;;9.50
25514;BMP180;48128;54.242;10.280;2022-10-13T08:14:28;101307.00;;;9.60
25514;BMP180;48128;54.242;10.280;2022-10-13T08:16:56;101305.00;;;9.60
25514;BMP180;48128;54.242;10.280;2022-10-13T08:19:23;101295.00;;;9.70
25514;BMP180;48128;54.242;10.280;2022-10-13T08:21:52;101293.00;;;9.80
25514;BMP180;48128;54.242;10.280;2022-10-13T08:24:24;101279.00;;;9.80
25514;BMP180;48128;54.242;10.280;2022-10-13T08:26:52;101273.00;;;9.90
25514;BMP180;48128;54.242;10.280;2022-10-13T08:29:19;101276.00;;;10.00
25514;BMP180;48128;54.242;10.280;2022-10-13T08:31:50;101272.00;;;10.00
25514;BMP180;48128;54.242;10.280;2022-10-13T08:34:18;101265.00;;;10.10
25514;BMP180;48128;54.242;10.280;2022-10-13T08:36:44;101266.00;;;10.10
25514;BMP180;48128;54.242;10.280;2022-10-13T08:39:11;101276.00;;;10.20
25514;BMP180;48128;54.242;10.280;2022-10-13T08:41:41;101279.00;;;10.30
25514;BMP180;48128;54.242;10.280;2022-10-13T08:44:20;101281.00;;;10.40
25514;BMP180;48128;54.242;10.280;2022-10-13T08:49:50;101306.00;;;10.50
25514;BMP180;48128;54.242;10.280;2022-10-13T08:52:26;101299.00;;;10.50
25514;BMP180;48128;54.242;10.280;2022-10-13T08:54:53;101304.00;;;10.60
25514;BMP180;48128;54.242;10.280;2022-10-13T08:57:21;101308.00;;;10.60
25514;BMP180;48128;54.242;10.280;2022-10-13T08:59:48;101300.00;;;10.70
25514;BMP180;48128;54.242;10.280;2022-10-13T09:02:24;101299.00;;;10.70
25514;BMP180;48128;54.242;10.280;2022-10-13T09:04:52;101289.00;;;10.80
25514;BMP180;48128;54.242;10.280;2022-10-13T09:07:22;101285.00;;;10.90
25514;BMP180;48128;54.242;10.280;2022-10-13T09:09:51;101289.00;;;10.90
25514;BMP180;48128;54.242;10.280;2022-10-13T09:12:19;101277.00;;;11.00
25514;BMP180;48128;54.242;10.280;2022-10-13T09:14:58;101281.00;;;11.20
25514;BMP180;48128;54.242;10.280;2022-10-13T09:17:28;101285.00;;;11.20
25514;BMP180;48128;54.242;10.280;2022-10-13T09:22:44;101269.00;;;11.40
25514;BMP180;48128;54.242;10.280;2022-10-13T09:25:26;101265.00;;;11.40
25514;BMP180;48128;54.242;10.280;2022-10-13T09:27:55;101277.00;;;11.50
25514;BMP180;48128;54.242;10.280;2022-10-13T09:30:37;101282.00;;;11.50
25514;BMP180;48128;54.242;10.280;2022-10-13T09:35:32;101278.00;;;11.50
25514;BMP180;48128;54.242;10.280;2022-10-13T09:38:05;101284.00;;;11.60
25514;BMP180;48128;54.242;10.280;2022-10-13T09:40:32;101265.00;;;11.70
25514;BMP180;48128;54.242;10.280;2022-10-13T09:43:00;101268.00;;;11.70
25514;BMP180;48128;54.242;10.280;2022-10-13T09:45:28;101277.00;;;11.70
25514;BMP180;48128;54.242;10.280;2022-10-13T09:48:05;101278.00;;;11.80
25514;BMP180;48128;54.242;10.280;2022-10-13T09:50:34;101267.00;;;11.90
25514;BMP180;48128;54.242;10.280;2022-10-13T09:53:32;101274.00;;;11.90
25514;BMP180;48128;54.242;10.280;2022-10-13T09:56:20;101272.00;;;12.00
25514;BMP180;48128;54.242;10.280;2022-10-13T10:01:45;101268.00;;;12.00
25514;BMP180;48128;54.242;10.280;2022-10-13T10:04:16;101266.00;;;12.00
25514;BMP180;48128;54.242;10.280;2022-10-13T10:06:46;101263.00;;;12.00
25514;BMP180;48128;54.242;10.280;2022-10-13T10:09:34;101260.00;;;12.00
25514;BMP180;48128;54.242;10.280;2022-10-13T10:12:03;101242.00;;;12.10
25514;BMP180;48128;54.242;10.280;2022-10-13T10:14:35;101245.00;;;12.10
25514;BMP180;48128;54.242;10.280;2022-10-13T10:17:08;101249.00;;;12.10
25514;BMP180;48128;54.242;10.280;2022-10-13T10:30:32;101222.00;;;12.10
25514;BMP180;48128;54.242;10.280;2022-10-13T10:33:07;101214.00;;;12.10
25514;BMP180;48128;54.242;10.280;2022-10-13T10:46:14;101217.00;;;12.10
25514;BMP180;48128;54.242;10.280;2022-10-13T10:48:41;101221.00;;;12.10
25514;BMP180;48128;54.242;10.280;2022-10-13T10:51:09;101207.00;;;12.10
25514;BMP180;48128;54.242;10.280;2022-10-13T10:53:56;101194.00;;;12.10
25514;BMP180;48128;54.242;10.280;2022-10-13T10:56:32;101197.00;;;12.10
25514;BMP180;48128;54.242;10.280;2022-10-13T10:59:25;101192.00;;;12.20
25514;BMP180;48128;54.242;10.280;2022-10-13T11:04:45;101196.00;;;12.30
25514;BMP180;48128;54.242;10.280;2022-10-13T11:10:01;101186.00;;;12.40
25514;BMP180;48128;54.242;10.280;2022-10-13T11:12:45;101184.00;;;12.50
25514;BMP180;48128;54.242;10.280;2022-10-13T11:15:15;101188.00;;;12.50
25514;BMP180;48128;54.242;10.280;2022-10-13T11:17:46;101176.00;;;12.50
25514;BMP180;48128;54.242;10.280;2022-10-13T11:25:42;101184.00;;;12.60
25514;BMP180;48128;54.242;10.280;2022-10-13T11:30:53;101178.00;;;12.60
25514;BMP180;48128;54.242;10.280;2022-10-13T11:42:26;101160.00;;;13.10
25514;BMP180;48128;54.242;10.280;2022-10-13T11:45:36;101158.00;;;13.20
25514;BMP180;48128;54.242;10.280;2022-10-13T11:55:50;101186.00;;;13.40
25514;BMP180;48128;54.242;10.280;2022-10-13T11:58:22;101200.00;;;13.30
25514;BMP180;48128;54.242;10.280;2022-10-13T12:01:03;101186.00;;;13.30
25514;BMP180;48128;54.242;10.280;2022-10-13T12:03:37;101175.00;;;13.20
25514;BMP180;48128;54.242;10.280;2022-10-13T12:09:05;101160.00;;;13.30
25514;BMP180;48128;54.242;10.280;2022-10-13T12:11:35;101155.00;;;13.30
25514;BMP180;48128;54.242;10.280;2022-10-13T12:14:06;101165.00;;;13.50
25514;BMP180;48128;54.242;10.280;2022-10-13T12:16:34;101164.00;;;13.60
25514;BMP180;48128;54.242;10.280;2022-10-13T12:19:22;101171.00;;;13.70
25514;BMP180;48128;54.242;10.280;2022-10-13T12:21:50;101167.00;;;13.80
25514;BMP180;48128;54.242;10.280;2022-10-13T12:24:24;101181.00;;;13.70
25514;BMP180;48128;54.242;10.280;2022-10-13T12:26:51;101169.00;;;13.60
25514;BMP180;48128;54.242;10.280;2022-10-13T12:29:21;101154.00;;;13.40
25514;BMP180;48128;54.242;10.280;2022-10-13T12:31:49;101150.00;;;13.40
25514;BMP180;48128;54.242;10.280;2022-10-13T12:34:26;101157.00;;;13.30
25514;BMP180;48128;54.242;10.280;2022-10-13T12:37:04;101133.00;;;13.20
25514;BMP180;48128;54.242;10.280;2022-10-13T12:39:32;101141.00;;;13.20
25514;BMP180;48128;54.242;10.280;2022-10-13T12:42:00;101131.00;;;13.20
25514;BMP180;48128;54.242;10.280;2022-10-13T12:44:29;101137.00;;;13.20
25514;BMP180;48128;54.242;10.280;2022-10-13T12:46:58;101120.00;;;13.30
25514;BMP180;48128;54.242;10.280;2022-10-13T12:49:34;101128.00;;;13.30
25514;BMP180;48128;54.242;10.280;2022-10-13T12:52:10;101122.00;;;13.30
25514;BMP180;48128;54.242;10.280;2022-10-13T12:54:46;101117.00;;;13.30
25514;BMP180;48128;54.242;10.280;2022-10-13T12:57:16;101121.00;;;13.30
25514;BMP180;48128;54.242;10.280;2022-10-13T12:59:47;101117.00;;;13.30
25514;BMP180;48128;54.242;10.280;2022-10-13T13:02:18;101112.00;;;13.30
25514;BMP180;48128;54.242;10.280;2022-10-13T13:04:46;101120.00;;;13.30
25514;BMP180;48128;54.242;10.280;2022-10-13T13:07:34;101108.00;;;13.30
25514;BMP180;48128;54.242;10.280;2022-10-13T13:12:35;101108.00;;;13.40
25514;BMP180;48128;54.242;10.280;2022-10-13T13:17:51;101141.00;;;13.40
25514;BMP180;48128;54.242;10.280;2022-10-13T13:20:30;101139.00;;;13.40
25514;BMP180;48128;54.242;10.280;2022-10-13T13:22:58;101131.00;;;13.40
25514;BMP180;48128;54.242;10.280;2022-10-13T13:25:25;101130.00;;;13.30
25514;BMP180;48128;54.242;10.280;2022-10-13T13:27:52;101121.00;;;13.30
25514;BMP180;48128;54.242;10.280;2022-10-13T13:30:20;101127.00;;;13.20
25514;BMP180;48128;54.242;10.280;2022-10-13T13:32:47;101128.00;;;13.20
25514;BMP180;48128;54.242;10.280;2022-10-13T13:35:14;101129.00;;;13.20
25514;BMP180;48128;54.242;10.280;2022-10-13T13:37:47;101118.00;;;13.10
25514;BMP180;48128;54.242;10.280;2022-10-13T13:40:26;101105.00;;;13.10
25514;BMP180;48128;54.242;10.280;2022-10-13T13:42:53;101108.00;;;13.10
25514;BMP180;48128;54.242;10.280;2022-10-13T13:45:22;101095.00;;;13.10
25514;BMP180;48128;54.242;10.280;2022-10-13T13:47:50;101106.00;;;13.10
25514;BMP180;48128;54.242;10.280;2022-10-13T13:50:25;101107.00;;;13.10
25514;BMP180;48128;54.242;10.280;2022-10-13T13:52:53;101099.00;;;13.10
25514;BMP180;48128;54.242;10.280;2022-10-13T13:55:19;101101.00;;;13.10
25514;BMP180;48128;54.242;10.280;2022-10-13T13:57:48;101106.00;;;13.10
25514;BMP180;48128;54.242;10.280;2022-10-13T14:00:15;101110.00;;;13.10
25514;BMP180;48128;54.242;10.280;2022-10-13T14:02:43;101095.00;;;13.00
25514;BMP180;48128;54.242;10.280;2022-10-13T14:05:10;101092.00;;;13.00
25514;BMP180;48128;54.242;10.280;2022-10-13T14:07:38;101095.00;;;13.10
25514;BMP180;48128;54.242;10.280;2022-10-13T14:10:06;101095.00;;;13.10
25514;BMP180;48128;54.242;10.280;2022-10-13T14:12:34;101088.00;;;13.10
25514;BMP180;48128;54.242;10.280;2022-10-13T14:15:01;101095.00;;;13.10
25514;BMP180;48128;54.242;10.280;2022-10-13T14:17:27;101092.00;;;13.10
25514;BMP180;48128;54.242;10.280;2022-10-13T14:19:54;101088.00;;;13.00
25514;BMP180;48128;54.242;10.280;2022-10-13T14:22:21;101093.00;;;13.10
25514;BMP180;48128;54.242;10.280;2022-10-13T14:24:49;101089.00;;;13.10
25514;BMP180;48128;54.242;10.280;2022-10-13T14:27:15;101081.00;;;13.10
25514;BMP180;48128;54.242;10.280;2022-10-13T14:29:42;101093.00;;;13.10
25514;BMP180;48128;54.242;10.280;2022-10-13T14:32:09;101082.00;;;13.10
25514;BMP180;48128;54.242;10.280;2022-10-13T14:34:36;101089.00;;;13.10
25514;BMP180;48128;54.242;10.280;2022-10-13T14:37:03;101080.00;;;13.10
25514;BMP180;48128;54.242;10.280;2022-10-13T14:39:30;101088.00;;;13.20
25514;BMP180;48128;54.242;10.280;2022-10-13T14:41:57;101075.00;;;13.20
25514;BMP180;48128;54.242;10.280;2022-10-13T14:44:24;101084.00;;;13.10
25514;BMP180;48128;54.242;10.280;2022-10-13T14:46:50;101081.00;;;13.10
25514;BMP180;48128;54.242;10.280;2022-10-13T14:49:18;101077.00;;;13.10
25514;BMP180;48128;54.242;10.280;2022-10-13T14:51:44;101085.00;;;13.10
25514;BMP180;48128;54.242;10.280;2022-10-13T14:54:11;101079.00;;;13.10
25514;BMP180;48128;54.242;10.280;2022-10-13T14:56:38;101081.00;;;13.10
25514;BMP180;48128;54.242;10.280;2022-10-13T14:59:05;101091.00;;;13.10
25514;BMP180;48128;54.242;10.280;2022-10-13T15:01:33;101085.00;;;13.00
25514;BMP180;48128;54.242;10.280;2022-10-13T15:04:00;101082.00;;;13.10
25514;BMP180;48128;54.242;10.280;2022-10-13T15:06:27;101077.00;;;13.10
25514;BMP180;48128;54.242;10.280;2022-10-13T15:08:54;101066.00;;;13.00
25514;BMP180;48128;54.242;10.280;2022-10-13T15:11:21;101074.00;;;13.00
25514;BMP180;48128;54.242;10.280;2022-10-13T15:13:48;101063.00;;;13.00
25514;BMP180;48128;54.242;10.280;2022-10-13T15:16:17;101067.00;;;13.00
25514;BMP180;48128;54.242;10.280;2022-10-13T15:18:45;101075.00;;;13.00
25514;BMP180;48128;54.242;10.280;2022-10-13T15:21:12;101086.00;;;13.00
25514;BMP180;48128;54.242;10.280;2022-10-13T15:23:39;101078.00;;;13.00
25514;BMP180;48128;54.242;10.280;2022-10-13T15:26:06;101079.00;;;13.00
25514;BMP180;48128;54.242;10.280;2022-10-13T15:28:36;101074.00;;;12.90
25514;BMP180;48128;54.242;10.280;2022-10-13T15:31:03;101074.00;;;12.90
25514;BMP180;48128;54.242;10.280;2022-10-13T15:33:30;101083.00;;;12.90
25514;BMP180;48128;54.242;10.280;2022-10-13T15:35:58;101076.00;;;12.90